Station info - map view · info · telemetry · weather · raw · status · beacons · messages · bulletins · browse · moving · my account
Callsign, ship name or locator: Clear       
It is possible to search using wildcards (*?) after a prefix. Example: OH*
APRS station PA1HR-9 - show graphs
Map loading...
Comment: Hans Remeeus TM-D700 VW-Polo
Mic-E message: En route
Location: 52°00.81' N 6°31.24' E - locator JO32GA23LF - show map - static map
2.7 miles Northwest bearing 313° from Lichtenvoorde, Oost Gelre, Gelderland, Netherlands [?]
5.5 miles Northeast bearing 29° from Varsseveld, Oude IJsselstreek, Gelderland, Netherlands
73.4 miles East bearing 109° from Amsterdam, Gemeente Amsterdam, North Holland, Netherlands
76.8 miles North bearing 346° from Köln (Koeln), Regierungsbezirk Köln, North Rhine-Westphalia, Germany
Last position: 2018-02-24 15:06:57 EST (3h54m ago)
2018-02-24 21:06:57 CET local time at Lichtenvoorde, Netherlands [?]
Altitude: 10 ft
Course: 50°
Speed: 5 MPH
Device: Kenwood: TM-D700 (rig)
Last path: PA1HR-9>UR0PX1 via WIDE1-1,WIDE2-2,qAR,PE1NJN-10 (good)
Positions stored: 47361
Packet rate: 110 seconds between packets on average during 5490 seconds.
Stations near current position of PA1HR-9 - show more
callsign distance last heard - EST      callsign distance last heard - EST
PA3BQS-93.9 miles 59°2018-02-24 10:26:24 PD1JW-94.1 miles 189°2018-02-23 11:16:52
PE2HG4.4 miles 183°2018-02-05 13:41:12 PI1SGM-24.4 miles 65°2018-02-24 18:57:28
PI1GRL4.4 miles 65°2018-02-24 19:00:08 EW45235.5 miles 333°2018-02-17 02:03:59
PE1NJN-105.8 miles 327°2018-02-24 18:53:07 N48405975.9 miles 356°2018-02-16 20:08:16
EW50167.7 miles 40°2018-02-24 19:00:44 PA3VOS-98.1 miles 70°2018-02-16 02:00:39
DW66799.1 miles 284°2018-02-24 18:40:13 145.600-E9.2 miles 41°2018-02-24 18:50:36
430.275+E9.5 miles 39°2018-02-24 19:00:52 EL-PA3BUX10.3 miles 193°2018-02-24 18:51:22
PA1HM10.4 miles 186°2018-02-24 08:14:15 N484058611.1 miles 234°2018-02-14 19:55:06
PA3FAS11.2 miles 335°2018-02-20 11:30:16 PD5MJF11.9 miles 255°2018-02-24 09:54:56
PA3DRO-912.2 miles 253°2018-02-24 04:12:32 ER-DB0BOH12.4 miles 161°2018-02-24 18:51:36
Stations which heard PA1HR-9 directly on radio –
callsign pkts first heard - EST last heard longest (tx => rx) longest at - EST
DB0KX-2 14 2018-02-15 22:06:31 2018-02-19 18:31:54 JO31HW > JO31EG 46.2 miles 194° 2018-02-19 18:31:54
PE1MEW-10 5 2018-02-15 09:59:12 2018-02-15 10:06:26 JO32AE > JO22XF 3.6 miles 288° 2018-02-15 10:06:26
PE2KDK 26 2018-02-15 04:52:37 2018-02-24 13:58:03 JO22IA > JO22KE 14.1 miles 31° 2018-02-24 13:49:49
PI1TWE-2 1 2018-02-15 21:34:30 2018-02-15 21:34:30 JO32GA > JO32JG 20.8 miles 33° 2018-02-15 21:34:30
PI1SGM-2 227 2018-02-02 10:03:06 2018-02-24 15:06:59 JO22XA > JO32HA 28.4 miles 85° 2018-02-24 03:25:58
PA3EKI-10 19 2018-02-24 04:32:24 2018-02-24 13:45:43 JO22HA > JO21GW 5.3 miles 218° 2018-02-24 04:32:24
PD2WVH-2 4 2018-02-24 13:50:51 2018-02-24 13:54:57 JO22JB > JO22GE 12.4 miles 306° 2018-02-24 13:54:57
PE1NJN-10 32 2018-02-15 03:00:58 2018-02-24 15:06:57 JO32CC > JO32FC 11.4 miles 102° 2018-02-15 10:22:52
DG7JG-10 1 2018-02-19 18:12:17 2018-02-19 18:12:17 JO31HQ > JO31HP 3.5 miles 192° 2018-02-19 18:12:17
PI1ANH-2 23 2018-02-15 03:12:24 2018-02-15 03:55:26 JO31EW > JO21WX 19.3 miles 281° 2018-02-15 03:12:24
DB0KV-10 16 2018-02-15 10:22:52 2018-02-24 14:56:39 JO31IQ > JO31BS 24.6 miles 285° 2018-02-15 22:10:41
DB0NIS-10 1 2018-02-15 22:32:40 2018-02-15 22:32:40 JO31KL > JO30EP 60.0 miles 199° 2018-02-15 22:32:40
PI1NOS-10 37 2018-02-15 03:49:53 2018-02-24 14:19:40 JO22SB > JO22NF 21.1 miles 311° 2018-02-15 03:52:00
PD4DFT-10 2 2018-02-24 04:45:47 2018-02-24 10:20:41 JO21GW > JO21EX 9.0 miles 306° 2018-02-24 04:45:47
PI1BDG 1 2018-02-24 04:27:17 2018-02-24 04:27:17 JO22JB > JO22JB 0.5 miles 355° 2018-02-24 04:27:17
PD2MT-10 28 2018-02-15 04:40:16 2018-02-24 14:07:19 JO22JB > JO22NC 13.7 miles 75° 2018-02-24 04:26:13
PH3J 3 2018-02-15 03:33:00 2018-02-24 14:39:11 JO21XX > JO21WX 4.2 miles 281° 2018-02-24 03:22:49
PE1ROG-1 14 2018-02-15 03:14:30 2018-02-24 14:54:36 JO31AX > JO31CV 10.6 miles 122° 2018-02-15 03:28:30
PA3JT-10 22 2018-02-24 04:33:26 2018-02-24 13:41:36 JO21HX > JO21GU 11.4 miles 213° 2018-02-24 04:33:26
PA3GNZ-2 3 2018-02-15 04:45:25 2018-02-15 04:48:30 JO22MC > JO22NB 2.3 miles 171° 2018-02-15 04:48:30
DB0KLE 6 2018-02-15 22:04:36 2018-02-19 18:21:37 JO31HT > JO31DP 17.7 miles 223° 2018-02-19 18:21:37

Only position packets which were originated by the station are shown here. The range statistics show some extra long hops, because some digipeaters do not correctly add themselves to the digipeater path. Please check the raw packets.
About this site
This page shows real-time information collected from the Automatic Position Reporting System Internet network (APRS-IS). APRS is used by amateur (ham) radio operators to transmit real-time position information, weather data, telemetry and messages over the radio. A vehicle equipped with a GPS receiver, a VHF transmitter or HF transceiver and a small computer device called a tracker transmits it's location, speed and course in a small data packet, which is then received by a nearby iGate receiving site which forwards the packet on the Internet. Systems connected to the Internet can send information on the APRS-IS without a radio transmitter, or collect and display information transmitted anywhere in the world.
FAQ · Blog · Discussion group · Linking to aprs.fi · AIS sites · Service status · Database statistics · Advertising on aprs.fi · Technical details · API · Change log · Planned changes · Credits and thanks · Terms Of Service · iPhone/iPad APRS